Contact Info

Augusta Flying Club, Inc

KDNL 161753Z AUTO VRB04KT 10SM CLR 12/01 A3012 RMK AO2 SLP198 T01170011 10122 20011 58013


TAF KDNL 161732Z 1618/1718 28005KT P6SM SCT250 FM162300 VRB03KT P6SM SKC

info@augustaflyingclub.com

Send us a message